« 定点 在所 2020/7/21 tue | トップページ | 定点 富山空港 2020/7/29 wed »

2020/07/24

定点 富山空港 2020/7/24 fri

武漢肺炎の流行がなければ、今日が東京オリンピック2020の開会式の日。法律が変わり「スポーツの日」と言う、国民の休日となっている。が、現実はどうだ・・・ 都会からの飛び火で、各地で火の手が上がっている。本日の火の粉は、デリ〇〇。へー、そんな需要があるのかと、さぞかし高級なのかな。

RJNT 232300Z VRB02KT 9999 -SHRA FEW005 SCT070 BKN090 22/21 Q1009

20200724_rjnt_00ja05an

天候は、一向にすぐれない日が続いています。

20200724_rjnt_01ja05an

ANA313 RJTT-RJNT JA05AN B737-781

20200724_rjnt_02ja05an

昨日夕方に来たホンダジェットが駐機中。

20200724_rjnt_03kutabe

越中立山の霊獣「くたべ」が山から降りてきた。

20200724_rjnt_04kutabe

正体不明の難病の流行を予言し「私の姿を見れば難を逃れることができる
正体不明の難病の流行を予言し「私の姿を見れば難を逃れることができる」
正体不明の難病の流行を予言し「私の姿を見れば難を逃れることができる
正体不明の難病の流行を予言し「私の姿を見れば難を逃れることができる

正体不明の難病の流行を予言し「私の姿を見れば難を逃れることができる」

RJNT 240000Z VRB02KT 9999 -SHRA FEW005 SCT070 BKN100 23/21 Q1009

20200724_rjnt_05ana

搭乗口入り口には、サーモカメラが設置されています。

20200724_rjnt_06ja01jp

JA01JP HDJT 夕方能登へ

20200724_rjnt_07ja05an

8月から他の便も復活と告知されているが、怪しそう

20200724_rjnt_08ja05an

20200724_rjnt_09ja05an

ANA316 RJNT-RJTT JA05AN B737-781

RJNT 240200Z 30003KT 280V340 9999 -SHRA FEW005 BKN060 BKN090 25/22 Q1008

20200724_rjnt_10ja9690

JA9690→ AS332L AKF 直上を新潟方面へ、午後富山に帰ってきました。

 

|

« 定点 在所 2020/7/21 tue | トップページ | 定点 富山空港 2020/7/29 wed »

富山空港」カテゴリの記事

コメント

コメントを書く



(ウェブ上には掲載しません)


コメントは記事投稿者が公開するまで表示されません。



« 定点 在所 2020/7/21 tue | トップページ | 定点 富山空港 2020/7/29 wed »